<?xml version="1.0" encoding="UTF-8" ?>
<gpx version="1.1" xmlns:xsi="http://www.w3.org/2001/XMLSchema-instance" 
    xmlns="http://www.topografix.com/GPX/1/1" 
    xsi:schemaLocation="http://www.topografix.com/GPX/1/1 http://www.topografix.com/GPX/1/1/gpx.xsd" 
    creator="Openrunner - https://www.openrunner.com" >	<trk>
						<name>15012388-Sentier du But de Samson</name>
						<trkseg>
					<trkpt lat="45.617330" lon="4.424050">
						<ele>480</ele>
						<time>2022-06-23T13:50:35Z</time>
					</trkpt>
					<trkpt lat="45.617370" lon="4.424270">
						<ele>480</ele>
						<time>2022-06-23T13:50:56Z</time>
					</trkpt>
					<trkpt lat="45.617410" lon="4.424370">
						<ele>479</ele>
						<time>2022-06-23T13:51:07Z</time>
					</trkpt>
					<trkpt lat="45.617510" lon="4.424420">
						<ele>478</ele>
						<time>2022-06-23T13:51:21Z</time>
					</trkpt>
					<trkpt lat="45.617610" lon="4.424430">
						<ele>478</ele>
						<time>2022-06-23T13:51:34Z</time>
					</trkpt>
					<trkpt lat="45.617700" lon="4.424360">
						<ele>477</ele>
						<time>2022-06-23T13:51:48Z</time>
					</trkpt>
					<trkpt lat="45.617870" lon="4.424790">
						<ele>477</ele>
						<time>2022-06-23T13:52:34Z</time>
					</trkpt>
					<trkpt lat="45.617890" lon="4.425660">
						<ele>483</ele>
						<time>2022-06-23T13:53:56Z</time>
					</trkpt>
					<trkpt lat="45.618000" lon="4.426340">
						<ele>489</ele>
						<time>2022-06-23T13:55:01Z</time>
					</trkpt>
					<trkpt lat="45.617960" lon="4.426400">
						<ele>489</ele>
						<time>2022-06-23T13:55:08Z</time>
					</trkpt>
					<trkpt lat="45.617860" lon="4.426480">
						<ele>490</ele>
						<time>2022-06-23T13:55:24Z</time>
					</trkpt>
					<trkpt lat="45.617580" lon="4.426800">
						<ele>494</ele>
						<time>2022-06-23T13:56:12Z</time>
					</trkpt>
					<trkpt lat="45.617480" lon="4.427000">
						<ele>495</ele>
						<time>2022-06-23T13:56:34Z</time>
					</trkpt>
					<trkpt lat="45.617370" lon="4.427320">
						<ele>497</ele>
						<time>2022-06-23T13:57:08Z</time>
					</trkpt>
					<trkpt lat="45.617290" lon="4.427680">
						<ele>500</ele>
						<time>2022-06-23T13:57:43Z</time>
					</trkpt>
					<trkpt lat="45.617240" lon="4.428190">
						<ele>504</ele>
						<time>2022-06-23T13:58:31Z</time>
					</trkpt>
					<trkpt lat="45.617330" lon="4.428370">
						<ele>505</ele>
						<time>2022-06-23T13:58:52Z</time>
					</trkpt>
					<trkpt lat="45.617470" lon="4.428580">
						<ele>506</ele>
						<time>2022-06-23T13:59:19Z</time>
					</trkpt>
					<trkpt lat="45.617570" lon="4.428760">
						<ele>508</ele>
						<time>2022-06-23T13:59:40Z</time>
					</trkpt>
					<trkpt lat="45.617630" lon="4.429020">
						<ele>510</ele>
						<time>2022-06-23T14:00:06Z</time>
					</trkpt>
					<trkpt lat="45.617690" lon="4.429140">
						<ele>511</ele>
						<time>2022-06-23T14:00:20Z</time>
					</trkpt>
					<trkpt lat="45.617800" lon="4.429260">
						<ele>513</ele>
						<time>2022-06-23T14:00:38Z</time>
					</trkpt>
					<trkpt lat="45.617910" lon="4.429350">
						<ele>515</ele>
						<time>2022-06-23T14:00:55Z</time>
					</trkpt>
					<trkpt lat="45.617650" lon="4.429930">
						<ele>517</ele>
						<time>2022-06-23T14:01:59Z</time>
					</trkpt>
					<trkpt lat="45.617430" lon="4.430650">
						<ele>521</ele>
						<time>2022-06-23T14:03:13Z</time>
					</trkpt>
					<trkpt lat="45.617320" lon="4.431460">
						<ele>531</ele>
						<time>2022-06-23T14:04:30Z</time>
					</trkpt>
					<trkpt lat="45.617300" lon="4.431690">
						<ele>534</ele>
						<time>2022-06-23T14:04:51Z</time>
					</trkpt>
					<trkpt lat="45.617410" lon="4.432800">
						<ele>548</ele>
						<time>2022-06-23T14:06:36Z</time>
					</trkpt>
					<trkpt lat="45.617090" lon="4.433790">
						<ele>561</ele>
						<time>2022-06-23T14:08:18Z</time>
					</trkpt>
					<trkpt lat="45.617060" lon="4.434010">
						<ele>564</ele>
						<time>2022-06-23T14:08:39Z</time>
					</trkpt>
					<trkpt lat="45.616780" lon="4.434860">
						<ele>573</ele>
						<time>2022-06-23T14:10:06Z</time>
					</trkpt>
					<trkpt lat="45.616650" lon="4.435500">
						<ele>577</ele>
						<time>2022-06-23T14:11:09Z</time>
					</trkpt>
					<trkpt lat="45.616100" lon="4.436770">
						<ele>591</ele>
						<time>2022-06-23T14:13:28Z</time>
					</trkpt>
					<trkpt lat="45.615980" lon="4.436920">
						<ele>592</ele>
						<time>2022-06-23T14:13:49Z</time>
					</trkpt>
					<trkpt lat="45.615790" lon="4.437090">
						<ele>594</ele>
						<time>2022-06-23T14:14:19Z</time>
					</trkpt>
					<trkpt lat="45.615310" lon="4.437400">
						<ele>597</ele>
						<time>2022-06-23T14:15:29Z</time>
					</trkpt>
					<trkpt lat="45.614970" lon="4.437720">
						<ele>599</ele>
						<time>2022-06-23T14:16:24Z</time>
					</trkpt>
					<trkpt lat="45.614450" lon="4.438530">
						<ele>601</ele>
						<time>2022-06-23T14:18:06Z</time>
					</trkpt>
					<trkpt lat="45.614790" lon="4.438920">
						<ele>603</ele>
						<time>2022-06-23T14:19:05Z</time>
					</trkpt>
					<trkpt lat="45.614880" lon="4.439120">
						<ele>604</ele>
						<time>2022-06-23T14:19:27Z</time>
					</trkpt>
					<trkpt lat="45.614970" lon="4.439350">
						<ele>605</ele>
						<time>2022-06-23T14:19:51Z</time>
					</trkpt>
					<trkpt lat="45.615040" lon="4.439640">
						<ele>605</ele>
						<time>2022-06-23T14:20:20Z</time>
					</trkpt>
					<trkpt lat="45.615230" lon="4.440680">
						<ele>604</ele>
						<time>2022-06-23T14:22:00Z</time>
					</trkpt>
					<trkpt lat="45.615240" lon="4.440940">
						<ele>604</ele>
						<time>2022-06-23T14:22:25Z</time>
					</trkpt>
					<trkpt lat="45.615210" lon="4.441180">
						<ele>603</ele>
						<time>2022-06-23T14:22:47Z</time>
					</trkpt>
					<trkpt lat="45.614810" lon="4.441940">
						<ele>605</ele>
						<time>2022-06-23T14:24:16Z</time>
					</trkpt>
					<trkpt lat="45.614530" lon="4.442350">
						<ele>605</ele>
						<time>2022-06-23T14:25:10Z</time>
					</trkpt>
					<trkpt lat="45.614460" lon="4.442390">
						<ele>605</ele>
						<time>2022-06-23T14:25:20Z</time>
					</trkpt>
					<trkpt lat="45.614500" lon="4.442540">
						<ele>603</ele>
						<time>2022-06-23T14:25:35Z</time>
					</trkpt>
					<trkpt lat="45.614470" lon="4.442700">
						<ele>602</ele>
						<time>2022-06-23T14:25:50Z</time>
					</trkpt>
					<trkpt lat="45.614200" lon="4.442980">
						<ele>600</ele>
						<time>2022-06-23T14:26:35Z</time>
					</trkpt>
					<trkpt lat="45.613610" lon="4.443480">
						<ele>594</ele>
						<time>2022-06-23T14:28:06Z</time>
					</trkpt>
					<trkpt lat="45.612940" lon="4.443880">
						<ele>583</ele>
						<time>2022-06-23T14:29:43Z</time>
					</trkpt>
					<trkpt lat="45.612680" lon="4.444180">
						<ele>576</ele>
						<time>2022-06-23T14:30:28Z</time>
					</trkpt>
					<trkpt lat="45.612480" lon="4.444350">
						<ele>573</ele>
						<time>2022-06-23T14:30:59Z</time>
					</trkpt>
					<trkpt lat="45.611980" lon="4.444550">
						<ele>573</ele>
						<time>2022-06-23T14:32:08Z</time>
					</trkpt>
					<trkpt lat="45.611940" lon="4.444670">
						<ele>573</ele>
						<time>2022-06-23T14:32:20Z</time>
					</trkpt>
					<trkpt lat="45.611960" lon="4.444700">
						<ele>572</ele>
						<time>2022-06-23T14:32:24Z</time>
					</trkpt>
					<trkpt lat="45.611990" lon="4.444760">
						<ele>572</ele>
						<time>2022-06-23T14:32:31Z</time>
					</trkpt>
					<trkpt lat="45.612100" lon="4.445140">
						<ele>569</ele>
						<time>2022-06-23T14:33:10Z</time>
					</trkpt>
					<trkpt lat="45.612090" lon="4.445460">
						<ele>570</ele>
						<time>2022-06-23T14:33:39Z</time>
					</trkpt>
					<trkpt lat="45.611920" lon="4.445980">
						<ele>574</ele>
						<time>2022-06-23T14:34:33Z</time>
					</trkpt>
					<trkpt lat="45.611500" lon="4.446680">
						<ele>579</ele>
						<time>2022-06-23T14:35:59Z</time>
					</trkpt>
					<trkpt lat="45.611550" lon="4.446820">
						<ele>577</ele>
						<time>2022-06-23T14:36:14Z</time>
					</trkpt>
					<trkpt lat="45.611430" lon="4.447190">
						<ele>575</ele>
						<time>2022-06-23T14:36:52Z</time>
					</trkpt>
					<trkpt lat="45.611180" lon="4.447520">
						<ele>573</ele>
						<time>2022-06-23T14:37:37Z</time>
					</trkpt>
					<trkpt lat="45.610920" lon="4.447950">
						<ele>569</ele>
						<time>2022-06-23T14:38:30Z</time>
					</trkpt>
					<trkpt lat="45.610470" lon="4.448910">
						<ele>562</ele>
						<time>2022-06-23T14:40:18Z</time>
					</trkpt>
					<trkpt lat="45.610400" lon="4.449560">
						<ele>559</ele>
						<time>2022-06-23T14:41:20Z</time>
					</trkpt>
					<trkpt lat="45.610340" lon="4.450040">
						<ele>559</ele>
						<time>2022-06-23T14:42:05Z</time>
					</trkpt>
					<trkpt lat="45.610280" lon="4.450210">
						<ele>560</ele>
						<time>2022-06-23T14:42:23Z</time>
					</trkpt>
					<trkpt lat="45.610260" lon="4.450330">
						<ele>561</ele>
						<time>2022-06-23T14:42:34Z</time>
					</trkpt>
					<trkpt lat="45.610280" lon="4.450390">
						<ele>561</ele>
						<time>2022-06-23T14:42:41Z</time>
					</trkpt>
					<trkpt lat="45.610380" lon="4.450450">
						<ele>562</ele>
						<time>2022-06-23T14:42:55Z</time>
					</trkpt>
					<trkpt lat="45.610460" lon="4.450540">
						<ele>562</ele>
						<time>2022-06-23T14:43:09Z</time>
					</trkpt>
					<trkpt lat="45.610510" lon="4.450670">
						<ele>563</ele>
						<time>2022-06-23T14:43:22Z</time>
					</trkpt>
					<trkpt lat="45.610550" lon="4.450670">
						<ele>563</ele>
						<time>2022-06-23T14:43:28Z</time>
					</trkpt>
					<trkpt lat="45.610580" lon="4.450760">
						<ele>564</ele>
						<time>2022-06-23T14:43:37Z</time>
					</trkpt>
					<trkpt lat="45.611260" lon="4.450690">
						<ele>564</ele>
						<time>2022-06-23T14:45:08Z</time>
					</trkpt>
					<trkpt lat="45.611490" lon="4.450710">
						<ele>565</ele>
						<time>2022-06-23T14:45:39Z</time>
					</trkpt>
					<trkpt lat="45.611620" lon="4.450790">
						<ele>566</ele>
						<time>2022-06-23T14:45:58Z</time>
					</trkpt>
					<trkpt lat="45.611720" lon="4.450920">
						<ele>567</ele>
						<time>2022-06-23T14:46:16Z</time>
					</trkpt>
					<trkpt lat="45.611770" lon="4.451110">
						<ele>568</ele>
						<time>2022-06-23T14:46:35Z</time>
					</trkpt>
					<trkpt lat="45.611750" lon="4.451370">
						<ele>568</ele>
						<time>2022-06-23T14:46:59Z</time>
					</trkpt>
					<trkpt lat="45.611570" lon="4.451660">
						<ele>570</ele>
						<time>2022-06-23T14:47:35Z</time>
					</trkpt>
					<trkpt lat="45.611270" lon="4.451580">
						<ele>571</ele>
						<time>2022-06-23T14:48:16Z</time>
					</trkpt>
					<trkpt lat="45.611080" lon="4.451590">
						<ele>572</ele>
						<time>2022-06-23T14:48:41Z</time>
					</trkpt>
					<trkpt lat="45.610870" lon="4.451650">
						<ele>573</ele>
						<time>2022-06-23T14:49:10Z</time>
					</trkpt>
					<trkpt lat="45.610640" lon="4.451790">
						<ele>573</ele>
						<time>2022-06-23T14:49:43Z</time>
					</trkpt>
					<trkpt lat="45.610020" lon="4.452060">
						<ele>575</ele>
						<time>2022-06-23T14:51:10Z</time>
					</trkpt>
					<trkpt lat="45.609470" lon="4.452130">
						<ele>578</ele>
						<time>2022-06-23T14:52:24Z</time>
					</trkpt>
					<trkpt lat="45.609280" lon="4.452190">
						<ele>579</ele>
						<time>2022-06-23T14:52:50Z</time>
					</trkpt>
					<trkpt lat="45.609040" lon="4.452400">
						<ele>584</ele>
						<time>2022-06-23T14:53:27Z</time>
					</trkpt>
					<trkpt lat="45.608070" lon="4.452780">
						<ele>598</ele>
						<time>2022-06-23T14:55:41Z</time>
					</trkpt>
					<trkpt lat="45.607890" lon="4.452800">
						<ele>600</ele>
						<time>2022-06-23T14:56:05Z</time>
					</trkpt>
					<trkpt lat="45.607400" lon="4.452710">
						<ele>606</ele>
						<time>2022-06-23T14:57:11Z</time>
					</trkpt>
					<trkpt lat="45.606640" lon="4.452690">
						<ele>616</ele>
						<time>2022-06-23T14:58:53Z</time>
					</trkpt>
					<trkpt lat="45.605970" lon="4.452060">
						<ele>622</ele>
						<time>2022-06-23T15:00:40Z</time>
					</trkpt>
					<trkpt lat="45.605210" lon="4.451540">
						<ele>625</ele>
						<time>2022-06-23T15:02:32Z</time>
					</trkpt>
					<trkpt lat="45.604620" lon="4.450980">
						<ele>628</ele>
						<time>2022-06-23T15:04:07Z</time>
					</trkpt>
					<trkpt lat="45.604190" lon="4.450400">
						<ele>631</ele>
						<time>2022-06-23T15:05:26Z</time>
					</trkpt>
					<trkpt lat="45.603450" lon="4.450070">
						<ele>638</ele>
						<time>2022-06-23T15:07:09Z</time>
					</trkpt>
					<trkpt lat="45.603120" lon="4.449610">
						<ele>642</ele>
						<time>2022-06-23T15:08:11Z</time>
					</trkpt>
					<trkpt lat="45.602450" lon="4.449050">
						<ele>648</ele>
						<time>2022-06-23T15:09:54Z</time>
					</trkpt>
					<trkpt lat="45.601970" lon="4.448760">
						<ele>652</ele>
						<time>2022-06-23T15:11:04Z</time>
					</trkpt>
					<trkpt lat="45.601490" lon="4.448550">
						<ele>656</ele>
						<time>2022-06-23T15:12:11Z</time>
					</trkpt>
					<trkpt lat="45.601170" lon="4.448160">
						<ele>659</ele>
						<time>2022-06-23T15:13:07Z</time>
					</trkpt>
					<trkpt lat="45.600470" lon="4.447430">
						<ele>665</ele>
						<time>2022-06-23T15:15:02Z</time>
					</trkpt>
					<trkpt lat="45.599670" lon="4.446870">
						<ele>673</ele>
						<time>2022-06-23T15:17:01Z</time>
					</trkpt>
					<trkpt lat="45.599270" lon="4.446530">
						<ele>678</ele>
						<time>2022-06-23T15:18:03Z</time>
					</trkpt>
					<trkpt lat="45.599110" lon="4.446370">
						<ele>680</ele>
						<time>2022-06-23T15:18:29Z</time>
					</trkpt>
					<trkpt lat="45.598930" lon="4.446280">
						<ele>682</ele>
						<time>2022-06-23T15:18:55Z</time>
					</trkpt>
					<trkpt lat="45.598510" lon="4.446140">
						<ele>685</ele>
						<time>2022-06-23T15:19:52Z</time>
					</trkpt>
					<trkpt lat="45.598230" lon="4.446090">
						<ele>687</ele>
						<time>2022-06-23T15:20:30Z</time>
					</trkpt>
					<trkpt lat="45.598050" lon="4.446030">
						<ele>687</ele>
						<time>2022-06-23T15:20:55Z</time>
					</trkpt>
					<trkpt lat="45.597570" lon="4.445820">
						<ele>688</ele>
						<time>2022-06-23T15:22:02Z</time>
					</trkpt>
					<trkpt lat="45.597100" lon="4.445550">
						<ele>688</ele>
						<time>2022-06-23T15:23:09Z</time>
					</trkpt>
					<trkpt lat="45.596680" lon="4.445280">
						<ele>688</ele>
						<time>2022-06-23T15:24:11Z</time>
					</trkpt>
					<trkpt lat="45.596240" lon="4.444930">
						<ele>690</ele>
						<time>2022-06-23T15:25:18Z</time>
					</trkpt>
					<trkpt lat="45.595200" lon="4.443820">
						<ele>695</ele>
						<time>2022-06-23T15:28:11Z</time>
					</trkpt>
					<trkpt lat="45.594890" lon="4.443390">
						<ele>698</ele>
						<time>2022-06-23T15:29:09Z</time>
					</trkpt>
					<trkpt lat="45.594900" lon="4.443380">
						<ele>698</ele>
						<time>2022-06-23T15:29:11Z</time>
					</trkpt>
					<trkpt lat="45.595000" lon="4.443270">
						<ele>698</ele>
						<time>2022-06-23T15:29:27Z</time>
					</trkpt>
					<trkpt lat="45.595060" lon="4.443220">
						<ele>698</ele>
						<time>2022-06-23T15:29:37Z</time>
					</trkpt>
					<trkpt lat="45.595240" lon="4.443250">
						<ele>697</ele>
						<time>2022-06-23T15:30:01Z</time>
					</trkpt>
					<trkpt lat="45.595290" lon="4.443230">
						<ele>696</ele>
						<time>2022-06-23T15:30:08Z</time>
					</trkpt>
					<trkpt lat="45.595570" lon="4.443320">
						<ele>695</ele>
						<time>2022-06-23T15:30:46Z</time>
					</trkpt>
					<trkpt lat="45.596360" lon="4.443430">
						<ele>691</ele>
						<time>2022-06-23T15:32:32Z</time>
					</trkpt>
					<trkpt lat="45.596760" lon="4.443450">
						<ele>689</ele>
						<time>2022-06-23T15:33:25Z</time>
					</trkpt>
					<trkpt lat="45.597580" lon="4.443390">
						<ele>685</ele>
						<time>2022-06-23T15:35:15Z</time>
					</trkpt>
					<trkpt lat="45.597670" lon="4.443360">
						<ele>684</ele>
						<time>2022-06-23T15:35:27Z</time>
					</trkpt>
					<trkpt lat="45.597980" lon="4.443250">
						<ele>683</ele>
						<time>2022-06-23T15:36:10Z</time>
					</trkpt>
					<trkpt lat="45.598310" lon="4.443010">
						<ele>679</ele>
						<time>2022-06-23T15:36:59Z</time>
					</trkpt>
					<trkpt lat="45.598590" lon="4.442860">
						<ele>677</ele>
						<time>2022-06-23T15:37:39Z</time>
					</trkpt>
					<trkpt lat="45.598770" lon="4.442780">
						<ele>676</ele>
						<time>2022-06-23T15:38:04Z</time>
					</trkpt>
					<trkpt lat="45.599180" lon="4.442680">
						<ele>674</ele>
						<time>2022-06-23T15:39:00Z</time>
					</trkpt>
					<trkpt lat="45.599350" lon="4.442610">
						<ele>673</ele>
						<time>2022-06-23T15:39:23Z</time>
					</trkpt>
					<trkpt lat="45.599570" lon="4.442480">
						<ele>672</ele>
						<time>2022-06-23T15:39:55Z</time>
					</trkpt>
					<trkpt lat="45.599870" lon="4.442240">
						<ele>672</ele>
						<time>2022-06-23T15:40:41Z</time>
					</trkpt>
					<trkpt lat="45.600780" lon="4.441350">
						<ele>668</ele>
						<time>2022-06-23T15:43:08Z</time>
					</trkpt>
					<trkpt lat="45.600930" lon="4.441250">
						<ele>667</ele>
						<time>2022-06-23T15:43:30Z</time>
					</trkpt>
					<trkpt lat="45.601180" lon="4.441170">
						<ele>665</ele>
						<time>2022-06-23T15:44:05Z</time>
					</trkpt>
					<trkpt lat="45.601230" lon="4.441180">
						<ele>665</ele>
						<time>2022-06-23T15:44:11Z</time>
					</trkpt>
					<trkpt lat="45.601900" lon="4.441470">
						<ele>662</ele>
						<time>2022-06-23T15:45:45Z</time>
					</trkpt>
					<trkpt lat="45.602160" lon="4.441550">
						<ele>660</ele>
						<time>2022-06-23T15:46:20Z</time>
					</trkpt>
					<trkpt lat="45.602380" lon="4.441580">
						<ele>658</ele>
						<time>2022-06-23T15:46:50Z</time>
					</trkpt>
					<trkpt lat="45.603110" lon="4.441810">
						<ele>651</ele>
						<time>2022-06-23T15:48:29Z</time>
					</trkpt>
					<trkpt lat="45.603400" lon="4.441860">
						<ele>648</ele>
						<time>2022-06-23T15:49:08Z</time>
					</trkpt>
					<trkpt lat="45.603810" lon="4.441880">
						<ele>645</ele>
						<time>2022-06-23T15:50:03Z</time>
					</trkpt>
					<trkpt lat="45.603840" lon="4.441900">
						<ele>644</ele>
						<time>2022-06-23T15:50:08Z</time>
					</trkpt>
					<trkpt lat="45.604620" lon="4.441190">
						<ele>634</ele>
						<time>2022-06-23T15:52:11Z</time>
					</trkpt>
					<trkpt lat="45.605640" lon="4.440510">
						<ele>628</ele>
						<time>2022-06-23T15:54:41Z</time>
					</trkpt>
					<trkpt lat="45.605850" lon="4.440280">
						<ele>627</ele>
						<time>2022-06-23T15:55:16Z</time>
					</trkpt>
					<trkpt lat="45.606140" lon="4.439710">
						<ele>625</ele>
						<time>2022-06-23T15:56:22Z</time>
					</trkpt>
					<trkpt lat="45.606280" lon="4.439300">
						<ele>623</ele>
						<time>2022-06-23T15:57:05Z</time>
					</trkpt>
					<trkpt lat="45.606430" lon="4.439190">
						<ele>622</ele>
						<time>2022-06-23T15:57:27Z</time>
					</trkpt>
					<trkpt lat="45.606470" lon="4.439120">
						<ele>622</ele>
						<time>2022-06-23T15:57:36Z</time>
					</trkpt>
					<trkpt lat="45.606510" lon="4.439070">
						<ele>622</ele>
						<time>2022-06-23T15:57:43Z</time>
					</trkpt>
					<trkpt lat="45.606760" lon="4.438820">
						<ele>622</ele>
						<time>2022-06-23T15:58:24Z</time>
					</trkpt>
					<trkpt lat="45.606940" lon="4.438610">
						<ele>620</ele>
						<time>2022-06-23T15:58:55Z</time>
					</trkpt>
					<trkpt lat="45.607030" lon="4.438440">
						<ele>619</ele>
						<time>2022-06-23T15:59:15Z</time>
					</trkpt>
					<trkpt lat="45.607110" lon="4.438170">
						<ele>617</ele>
						<time>2022-06-23T15:59:42Z</time>
					</trkpt>
					<trkpt lat="45.607140" lon="4.437900">
						<ele>616</ele>
						<time>2022-06-23T16:00:07Z</time>
					</trkpt>
					<trkpt lat="45.607170" lon="4.437490">
						<ele>615</ele>
						<time>2022-06-23T16:00:46Z</time>
					</trkpt>
					<trkpt lat="45.607160" lon="4.436920">
						<ele>614</ele>
						<time>2022-06-23T16:01:39Z</time>
					</trkpt>
					<trkpt lat="45.607070" lon="4.436350">
						<ele>613</ele>
						<time>2022-06-23T16:02:34Z</time>
					</trkpt>
					<trkpt lat="45.607230" lon="4.436010">
						<ele>612</ele>
						<time>2022-06-23T16:03:12Z</time>
					</trkpt>
					<trkpt lat="45.607560" lon="4.434820">
						<ele>604</ele>
						<time>2022-06-23T16:05:11Z</time>
					</trkpt>
					<trkpt lat="45.607820" lon="4.433480">
						<ele>592</ele>
						<time>2022-06-23T16:07:21Z</time>
					</trkpt>
					<trkpt lat="45.608290" lon="4.432290">
						<ele>590</ele>
						<time>2022-06-23T16:09:29Z</time>
					</trkpt>
					<trkpt lat="45.608940" lon="4.431180">
						<ele>571</ele>
						<time>2022-06-23T16:11:44Z</time>
					</trkpt>
					<trkpt lat="45.609150" lon="4.430980">
						<ele>566</ele>
						<time>2022-06-23T16:12:18Z</time>
					</trkpt>
					<trkpt lat="45.609700" lon="4.430220">
						<ele>548</ele>
						<time>2022-06-23T16:14:00Z</time>
					</trkpt>
					<trkpt lat="45.610050" lon="4.429650">
						<ele>540</ele>
						<time>2022-06-23T16:15:11Z</time>
					</trkpt>
					<trkpt lat="45.610290" lon="4.429190">
						<ele>533</ele>
						<time>2022-06-23T16:16:04Z</time>
					</trkpt>
					<trkpt lat="45.610390" lon="4.428880">
						<ele>530</ele>
						<time>2022-06-23T16:16:36Z</time>
					</trkpt>
					<trkpt lat="45.610470" lon="4.428790">
						<ele>528</ele>
						<time>2022-06-23T16:16:50Z</time>
					</trkpt>
					<trkpt lat="45.610520" lon="4.428710">
						<ele>527</ele>
						<time>2022-06-23T16:17:00Z</time>
					</trkpt>
					<trkpt lat="45.610730" lon="4.428290">
						<ele>523</ele>
						<time>2022-06-23T16:17:48Z</time>
					</trkpt>
					<trkpt lat="45.611610" lon="4.427900">
						<ele>523</ele>
						<time>2022-06-23T16:19:51Z</time>
					</trkpt>
					<trkpt lat="45.612870" lon="4.427140">
						<ele>523</ele>
						<time>2022-06-23T16:22:53Z</time>
					</trkpt>
					<trkpt lat="45.613120" lon="4.426750">
						<ele>523</ele>
						<time>2022-06-23T16:23:43Z</time>
					</trkpt>
					<trkpt lat="45.613400" lon="4.426120">
						<ele>523</ele>
						<time>2022-06-23T16:24:52Z</time>
					</trkpt>
					<trkpt lat="45.613720" lon="4.425470">
						<ele>522</ele>
						<time>2022-06-23T16:26:06Z</time>
					</trkpt>
					<trkpt lat="45.613730" lon="4.425360">
						<ele>522</ele>
						<time>2022-06-23T16:26:17Z</time>
					</trkpt>
					<trkpt lat="45.613890" lon="4.425230">
						<ele>521</ele>
						<time>2022-06-23T16:26:41Z</time>
					</trkpt>
					<trkpt lat="45.614230" lon="4.424860">
						<ele>518</ele>
						<time>2022-06-23T16:27:38Z</time>
					</trkpt>
					<trkpt lat="45.614580" lon="4.424660">
						<ele>516</ele>
						<time>2022-06-23T16:28:29Z</time>
					</trkpt>
					<trkpt lat="45.614690" lon="4.424620">
						<ele>515</ele>
						<time>2022-06-23T16:28:44Z</time>
					</trkpt>
					<trkpt lat="45.614750" lon="4.424560">
						<ele>514</ele>
						<time>2022-06-23T16:28:54Z</time>
					</trkpt>
					<trkpt lat="45.614900" lon="4.424360">
						<ele>511</ele>
						<time>2022-06-23T16:29:21Z</time>
					</trkpt>
					<trkpt lat="45.615150" lon="4.424140">
						<ele>507</ele>
						<time>2022-06-23T16:30:00Z</time>
					</trkpt>
					<trkpt lat="45.615430" lon="4.424000">
						<ele>503</ele>
						<time>2022-06-23T16:30:40Z</time>
					</trkpt>
					<trkpt lat="45.615620" lon="4.423940">
						<ele>501</ele>
						<time>2022-06-23T16:31:06Z</time>
					</trkpt>
					<trkpt lat="45.616640" lon="4.423890">
						<ele>487</ele>
						<time>2022-06-23T16:33:22Z</time>
					</trkpt>
					<trkpt lat="45.616730" lon="4.423870">
						<ele>486</ele>
						<time>2022-06-23T16:33:34Z</time>
					</trkpt>
					<trkpt lat="45.616860" lon="4.423810">
						<ele>484</ele>
						<time>2022-06-23T16:33:52Z</time>
					</trkpt>
					<trkpt lat="45.616980" lon="4.423720">
						<ele>482</ele>
						<time>2022-06-23T16:34:10Z</time>
					</trkpt>
					<trkpt lat="45.617100" lon="4.424060">
						<ele>482</ele>
						<time>2022-06-23T16:34:46Z</time>
					</trkpt>
					<trkpt lat="45.617130" lon="4.424100">
						<ele>482</ele>
						<time>2022-06-23T16:34:51Z</time>
					</trkpt>
					<trkpt lat="45.617170" lon="4.424100">
						<ele>482</ele>
						<time>2022-06-23T16:34:57Z</time>
					</trkpt>
					<trkpt lat="45.617280" lon="4.424030">
						<ele>480</ele>
						<time>2022-06-23T16:35:13Z</time>
					</trkpt>
					<trkpt lat="45.617310" lon="4.423960">
						<ele>479</ele>
						<time>2022-06-23T16:35:20Z</time>
					</trkpt>
					<trkpt lat="45.617330" lon="4.424050">
						<ele>480</ele>
						<time>2022-06-23T16:35:29Z</time>
					</trkpt>
					</trkseg>
				</trk>
			</gpx>